Terminal Aerodrome Forecast
Issued by NWS

Home | Current Version | Previous Version | Text Only | Print | Product List | Glossary On
Versions: 1 2 3 4 5 6 7 8 9 10 11 12 13 14 15 16 17 18
992
FTUS46 KSEW 090241 AAB
TAFOLM
TAF AMD
KOLM 090241Z 0903/0924 03007KT 1SM -SN BR OVC006
      TEMPO 0903/0906 1/2SM SN VV004
     FM090900 20007KT 5SM -RA BR SCT007 BKN015 OVC030
      TEMPO 0909/0911 3SM -FZRA BR BKN007 OVC015=

USA.gov is the U.S. government's official web portal to all federal, state and local government web resources and services.